createdAt,value
2023-01-25T00:00:51.676Z,18.83
2023-01-25T00:03:18.847Z,19.27
2023-01-25T00:05:46.039Z,19.88
2023-01-25T00:08:13.332Z,19.20
2023-01-25T00:10:40.383Z,19.38
2023-01-25T00:13:08.260Z,21.67
2023-01-25T00:15:38.307Z,21.23
2023-01-25T00:18:06.086Z,21.35
2023-01-25T00:20:33.299Z,22.77
2023-01-25T00:23:01.161Z,17.58
2023-01-25T00:25:28.741Z,19.00
2023-01-25T00:28:03.940Z,19.63
2023-01-25T00:30:31.141Z,22.02
2023-01-25T00:33:17.528Z,18.88
2023-01-25T00:35:45.591Z,21.60
2023-01-25T00:38:35.729Z,21.50
2023-01-25T00:41:03.327Z,19.90
2023-01-25T00:43:32.665Z,18.75
2023-01-25T00:46:06.343Z,20.10
2023-01-25T00:48:33.587Z,20.08
2023-01-25T00:51:03.480Z,18.58
2023-01-25T00:53:32.118Z,17.40
2023-01-25T00:55:59.269Z,16.23
2023-01-25T00:58:30.374Z,19.08
2023-01-25T01:00:57.861Z,16.13
2023-01-25T01:03:25.830Z,20.25
2023-01-25T01:06:10.057Z,18.20
2023-01-25T01:08:42.179Z,17.05
2023-01-25T01:11:12.546Z,17.83
2023-01-25T01:13:40.935Z,17.73
2023-01-25T01:16:12.069Z,19.38
2023-01-25T01:18:42.487Z,18.63
2023-01-25T01:21:10.782Z,21.02
2023-01-25T01:23:48.281Z,18.38
2023-01-25T01:26:19.776Z,20.85
2023-01-25T01:28:48.490Z,19.33
2023-01-25T01:31:21.459Z,21.20
2023-01-25T01:34:06.787Z,17.95
2023-01-25T01:36:35.542Z,19.92
2023-01-25T01:39:02.650Z,18.52
2023-01-25T01:41:30.404Z,21.67
2023-01-25T01:43:57.846Z,18.30
2023-01-25T01:46:37.798Z,18.90
2023-01-25T01:49:27.846Z,21.17
2023-01-25T01:52:11.395Z,17.58
2023-01-25T01:55:01.544Z,19.10
2023-01-25T01:57:38.915Z,17.13
2023-01-25T02:00:21.306Z,16.05
2023-01-25T02:02:53.159Z,19.73
2023-01-25T02:05:26.888Z,20.13
2023-01-25T02:08:02.402Z,21.52
2023-01-25T02:10:36.415Z,21.58
2023-01-25T02:13:09.115Z,16.73
2023-01-25T02:15:44.605Z,21.88
2023-01-25T02:18:17.802Z,16.02
2023-01-25T02:20:46.973Z,18.40
2023-01-25T02:23:36.764Z,21.08
2023-01-25T02:26:06.134Z,17.73
2023-01-25T02:28:53.851Z,18.73
2023-01-25T02:33:52.868Z,17.30
2023-01-25T02:36:28.746Z,20.02
2023-01-25T02:39:06.040Z,17.75
2023-01-25T02:41:36.076Z,16.95
2023-01-25T02:44:13.517Z,17.05
2023-01-25T02:46:45.612Z,17.65
2023-01-25T02:49:13.889Z,18.30
2023-01-25T02:51:45.439Z,19.17
2023-01-25T02:54:13.976Z,20.52
2023-01-25T02:56:44.168Z,17.52
2023-01-25T02:59:13.582Z,17.23
2023-01-25T03:01:52.270Z,22.95
2023-01-25T03:04:19.729Z,23.27
2023-01-25T03:06:48.452Z,19.27
2023-01-25T03:09:17.134Z,20.20
2023-01-25T03:12:14.212Z,21.20
2023-01-25T03:14:47.745Z,19.35
2023-01-25T03:17:16.376Z,19.45
2023-01-25T03:19:44.201Z,19.65
2023-01-25T03:22:12.694Z,19.67
2023-01-25T03:24:41.344Z,21.35
2023-01-25T03:27:28.100Z,20.75
2023-01-25T03:30:04.394Z,20.88
2023-01-25T03:32:35.800Z,20.92
2023-01-25T03:35:09.116Z,21.30
2023-01-25T03:37:37.457Z,25.67
2023-01-25T03:40:05.859Z,20.92
2023-01-25T03:42:37.025Z,23.17
2023-01-25T03:45:05.451Z,19.83
2023-01-25T03:47:33.272Z,25.67
2023-01-25T03:50:00.499Z,24.70
2023-01-25T03:52:45.837Z,21.35
2023-01-25T03:55:16.115Z,24.23
2023-01-25T03:57:49.769Z,22.70
2023-01-25T04:00:25.123Z,23.85
2023-01-25T04:03:02.895Z,27.38
2023-01-25T04:05:35.142Z,22.48
2023-01-25T04:08:03.373Z,23.25
2023-01-25T04:10:39.418Z,22.73
2023-01-25T04:13:10.824Z,24.92
2023-01-25T04:15:38.888Z,24.45
2023-01-25T04:18:18.159Z,22.10
2023-01-25T04:20:46.900Z,23.02
2023-01-25T04:23:15.026Z,26.30
2023-01-25T04:25:47.862Z,26.98
2023-01-25T04:28:17.028Z,25.33
2023-01-25T04:30:47.617Z,26.52
2023-01-25T04:33:16.660Z,27.73
2023-01-25T04:35:45.889Z,26.85
2023-01-25T04:38:24.274Z,25.45
2023-01-25T04:40:53.003Z,29.55
2023-01-25T04:43:27.155Z,26.50
2023-01-25T04:46:02.857Z,28.77
2023-01-25T04:48:34.789Z,28.23
2023-01-25T04:51:05.603Z,27.85
2023-01-25T06:03:20.809Z,33.58
2023-01-25T06:05:47.599Z,30.73
2023-01-25T06:08:14.831Z,27.10
2023-01-25T06:10:44.653Z,30.45
2023-01-25T06:13:12.444Z,29.20
2023-01-25T06:15:39.135Z,32.08
2023-01-25T06:18:26.772Z,33.08
2023-01-25T06:21:16.543Z,32.28
2023-01-25T06:23:45.229Z,27.45
2023-01-25T06:26:14.605Z,28.60
2023-01-25T06:28:41.793Z,31.10
2023-01-25T06:31:14.818Z,29.05
2023-01-25T06:33:43.739Z,28.50
2023-01-25T06:36:13.587Z,30.15
2023-01-25T06:38:41.014Z,23.58
2023-01-25T06:41:12.163Z,31.13
2023-01-25T06:43:39.353Z,29.05
2023-01-25T06:46:08.822Z,28.50
2023-01-25T06:48:35.836Z,26.23
2023-01-25T06:51:05.873Z,28.05
2023-01-25T06:56:12.927Z,29.80
2023-01-25T07:01:30.769Z,32.90
2023-01-25T07:03:59.003Z,31.38
2023-01-25T07:06:31.809Z,33.70
2023-01-25T07:09:05.981Z,30.10
2023-01-25T07:11:33.696Z,29.48
2023-01-25T07:14:00.374Z,32.53
2023-01-25T07:16:27.625Z,30.25
2023-01-25T07:19:09.753Z,32.00
2023-01-25T07:21:37.669Z,30.52
2023-01-25T07:24:06.403Z,33.95
2023-01-25T07:26:34.258Z,33.90
2023-01-25T07:29:01.427Z,38.50
2023-01-25T07:31:30.104Z,34.33
2023-01-25T07:33:59.849Z,34.97
2023-01-25T07:36:27.716Z,40.05
2023-01-25T07:38:56.192Z,38.75
2023-01-25T07:41:26.365Z,39.00
2023-01-25T07:43:54.528Z,36.58
2023-01-25T07:46:33.489Z,36.85
2023-01-25T07:49:00.742Z,38.28
2023-01-25T07:51:31.971Z,38.17
2023-01-25T07:54:02.267Z,39.13
2023-01-25T07:56:33.203Z,36.95
2023-01-25T07:59:05.332Z,34.95
2023-01-25T08:01:34.765Z,35.53
2023-01-25T08:04:02.168Z,35.07
2023-01-25T08:06:36.166Z,34.47
2023-01-25T08:09:10.513Z,39.30
2023-01-25T08:11:38.227Z,37.63
2023-01-25T08:14:04.870Z,34.53
2023-01-25T08:16:31.906Z,38.00
2023-01-25T08:19:01.340Z,33.45
2023-01-25T08:21:31.604Z,31.20
2023-01-25T08:24:01.050Z,37.72
2023-01-25T08:26:31.171Z,36.30
2023-01-25T08:28:58.631Z,30.13
2023-01-25T08:31:28.419Z,32.00
2023-01-25T08:33:56.401Z,36.05
2023-01-25T08:36:27.964Z,33.17
2023-01-25T08:39:00.346Z,33.63
2023-01-25T08:41:28.676Z,38.05
2023-01-25T08:43:57.791Z,34.13
2023-01-25T08:46:29.381Z,34.55
2023-01-25T08:48:59.984Z,34.28
2023-01-25T08:51:26.923Z,32.78
2023-01-25T08:53:54.155Z,32.67
2023-01-25T08:56:21.337Z,32.78
2023-01-25T08:58:49.881Z,31.23
2023-01-25T09:01:19.051Z,30.92
2023-01-25T09:03:48.410Z,33.53
2023-01-25T09:06:16.028Z,35.38
2023-01-25T09:08:43.631Z,34.67
2023-01-25T09:11:16.142Z,32.85
2023-01-25T09:13:43.969Z,34.25
2023-01-25T09:16:13.764Z,34.45
2023-01-25T09:18:42.672Z,35.67
2023-01-25T09:21:14.662Z,32.42
2023-01-25T09:23:51.129Z,31.10
2023-01-25T09:26:32.578Z,28.23
2023-01-25T09:28:59.946Z,34.85
2023-01-25T09:31:29.546Z,35.35
2023-01-25T09:34:10.306Z,35.17
2023-01-25T09:36:37.982Z,37.25
2023-01-25T09:39:05.378Z,42.95
2023-01-25T09:42:00.728Z,37.63
2023-01-25T09:44:37.522Z,36.55
2023-01-25T09:47:25.850Z,36.22
2023-01-25T09:50:06.721Z,37.45
2023-01-25T09:53:04.605Z,36.35
2023-01-25T09:55:33.538Z,36.75
2023-01-25T09:58:02.614Z,34.45
2023-01-25T10:00:45.500Z,36.53
2023-01-25T10:03:16.975Z,34.85
2023-01-25T10:05:47.311Z,35.80
2023-01-25T10:08:26.592Z,42.83
2023-01-25T10:11:04.707Z,37.25
2023-01-25T10:13:32.114Z,40.85
2023-01-25T10:16:05.227Z,36.03
2023-01-25T10:18:39.597Z,36.90
2023-01-25T10:21:13.275Z,46.20
2023-01-25T10:23:43.465Z,39.72
2023-01-25T10:26:27.266Z,40.22
2023-01-25T10:29:08.639Z,39.03
2023-01-25T10:31:49.086Z,38.25
2023-01-25T10:34:31.562Z,42.05
2023-01-25T10:37:04.056Z,40.15
2023-01-25T10:39:33.176Z,45.45
2023-01-25T10:42:05.128Z,38.42
2023-01-25T10:44:32.825Z,38.35
2023-01-25T10:47:27.175Z,40.85
2023-01-25T10:49:56.961Z,35.70
2023-01-25T10:52:29.611Z,39.47
2023-01-25T10:55:17.218Z,34.13
2023-01-25T10:58:04.100Z,35.58
2023-01-25T11:00:37.005Z,33.03
2023-01-25T11:03:04.697Z,36.15
2023-01-25T11:05:36.519Z,34.75
2023-01-25T11:08:25.966Z,30.83
2023-01-25T11:10:54.294Z,34.10
2023-01-25T11:13:24.759Z,32.35
2023-01-25T11:15:58.115Z,35.78
2023-01-25T11:18:35.979Z,30.92
2023-01-25T11:21:19.460Z,31.95
2023-01-25T11:24:09.458Z,32.08
2023-01-25T11:26:38.862Z,34.10
2023-01-25T11:31:35.696Z,28.67
2023-01-25T11:34:02.877Z,34.50
2023-01-25T11:36:41.679Z,32.55
2023-01-25T11:39:59.192Z,33.65
2023-01-25T11:42:45.775Z,27.60
2023-01-25T11:45:28.362Z,28.27
2023-01-25T11:48:06.958Z,31.00
2023-01-25T11:50:47.467Z,31.15
2023-01-25T11:53:55.763Z,31.83
2023-01-25T11:56:47.649Z,28.52
2023-01-25T11:59:53.410Z,28.75
2023-01-25T12:02:54.005Z,32.85
2023-01-25T12:05:39.474Z,30.98
2023-01-25T12:08:21.661Z,27.08
2023-01-25T12:10:51.868Z,28.67
2023-01-25T12:13:41.010Z,27.50
2023-01-25T12:16:31.376Z,24.42
2023-01-25T12:19:11.738Z,30.88
2023-01-25T12:21:50.651Z,27.70
2023-01-25T12:24:37.459Z,27.87
2023-01-25T12:27:10.585Z,30.98
2023-01-25T12:29:55.966Z,25.10
2023-01-25T12:32:39.929Z,26.65
2023-01-25T12:35:30.525Z,27.30
2023-01-25T12:38:04.889Z,22.48
2023-01-25T12:40:59.219Z,32.72
2023-01-25T12:43:39.059Z,25.52
2023-01-25T12:46:21.537Z,24.52
2023-01-25T12:48:53.981Z,23.67
2023-01-25T12:51:22.429Z,26.48
2023-01-25T12:53:52.500Z,26.17
2023-01-25T12:56:55.109Z,31.20
2023-01-25T12:59:37.694Z,30.13
2023-01-25T13:02:22.617Z,23.50
2023-01-25T13:05:03.052Z,29.85
2023-01-25T13:07:41.894Z,24.50
2023-01-25T13:10:27.112Z,30.50
2023-01-25T13:12:56.975Z,28.80
2023-01-25T13:18:28.751Z,31.77
2023-01-25T13:20:56.157Z,35.00
2023-01-25T13:23:50.984Z,29.73
2023-01-25T13:26:29.363Z,34.88
2023-01-25T13:28:59.741Z,38.80
2023-01-25T13:31:52.158Z,33.40
2023-01-25T13:34:34.876Z,39.08
2023-01-25T13:37:25.076Z,34.25
2023-01-25T13:39:58.101Z,34.47
2023-01-25T13:42:36.608Z,37.28
2023-01-25T13:45:18.713Z,33.85
2023-01-25T13:48:03.530Z,39.15
2023-01-25T13:50:34.281Z,42.17
2023-01-25T13:53:03.692Z,37.90
2023-01-25T13:55:46.368Z,34.17
2023-01-25T13:58:20.185Z,39.65
2023-01-25T14:00:55.960Z,40.88
2023-01-25T14:03:29.283Z,44.80
2023-01-25T14:05:58.707Z,44.90
2023-01-25T14:10:54.492Z,34.22
2023-01-25T14:13:21.762Z,35.70
2023-01-25T14:15:58.026Z,34.33
2023-01-25T14:18:34.171Z,35.20
2023-01-25T14:21:17.289Z,37.78
2023-01-25T14:23:45.472Z,34.08
2023-01-25T14:26:19.178Z,28.98
2023-01-25T14:28:59.628Z,30.75
2023-01-25T14:31:34.376Z,42.80
2023-01-25T14:34:04.418Z,34.67
2023-01-25T14:36:34.425Z,30.15
2023-01-25T14:39:04.463Z,28.13
2023-01-25T14:41:38.882Z,27.67
2023-01-25T14:44:14.211Z,26.60
2023-01-25T14:46:41.455Z,27.48
2023-01-25T14:49:27.413Z,34.78
2023-01-25T14:52:05.642Z,34.78
2023-01-25T14:54:37.718Z,36.30
2023-01-25T14:57:06.877Z,33.13
2023-01-25T14:59:47.752Z,30.10
2023-01-25T15:02:45.870Z,22.10
2023-01-25T15:05:16.186Z,21.45
2023-01-25T15:07:48.167Z,30.63
2023-01-25T15:10:22.925Z,33.30
2023-01-25T15:13:18.062Z,28.35
2023-01-25T15:15:59.749Z,38.45
2023-01-25T15:18:42.253Z,36.00
2023-01-25T15:21:14.634Z,28.80
2023-01-25T15:23:43.527Z,39.15
2023-01-25T15:26:19.137Z,41.13
2023-01-25T15:28:47.184Z,37.78
2023-01-25T15:31:33.884Z,37.17
2023-01-25T15:34:02.137Z,37.47
2023-01-25T15:36:30.096Z,38.60
2023-01-25T15:38:57.520Z,38.28
2023-01-25T15:41:24.316Z,42.55
2023-01-25T15:43:52.459Z,45.20
2023-01-25T15:46:21.782Z,41.78
2023-01-25T15:48:49.891Z,39.40
2023-01-25T15:51:17.002Z,46.90
2023-01-25T15:53:43.681Z,37.17
2023-01-25T15:56:15.727Z,47.03
2023-01-25T15:58:46.333Z,41.80
2023-01-25T16:01:13.774Z,36.00
2023-01-25T16:03:41.840Z,39.47
2023-01-25T16:06:25.634Z,38.65
2023-01-25T16:08:52.802Z,42.38
2023-01-25T16:11:19.583Z,37.75
2023-01-25T16:13:46.323Z,45.00
2023-01-25T16:16:24.008Z,42.90
2023-01-25T16:18:52.276Z,49.45
2023-01-25T16:21:18.951Z,58.30
2023-01-25T16:23:45.733Z,49.25
2023-01-25T16:26:25.590Z,52.85
2023-01-25T16:28:52.927Z,52.38
2023-01-25T16:31:31.973Z,40.13
2023-01-25T16:34:00.874Z,37.75
2023-01-25T16:36:27.733Z,43.35
2023-01-25T16:38:54.998Z,42.95
2023-01-25T16:41:21.748Z,47.15
2023-01-25T16:43:49.936Z,62.53
2023-01-25T16:46:19.010Z,68.93
2023-01-25T16:48:48.443Z,82.57
2023-01-25T16:51:20.810Z,60.17
2023-01-25T16:53:49.980Z,71.57
2023-01-25T16:56:22.209Z,64.88
2023-01-25T16:58:50.811Z,79.45
2023-01-25T17:01:19.519Z,62.38
2023-01-25T17:03:47.391Z,74.03
2023-01-25T17:06:18.837Z,70.13
2023-01-25T17:08:47.699Z,75.65
2023-01-25T17:11:14.445Z,69.00
2023-01-25T17:13:41.384Z,85.88
2023-01-25T17:16:08.390Z,81.75
2023-01-25T17:18:35.319Z,75.63
2023-01-25T17:21:06.220Z,87.75
2023-01-25T17:23:37.837Z,85.15
2023-01-25T17:26:10.250Z,85.75
2023-01-25T17:28:37.465Z,88.03
2023-01-25T17:31:04.524Z,83.78
2023-01-25T17:33:32.451Z,89.40
2023-01-25T17:36:02.749Z,88.35
2023-01-25T17:38:30.258Z,98.93
2023-01-25T17:40:56.810Z,92.07
2023-01-25T17:43:24.121Z,100.55
2023-01-25T17:45:52.160Z,90.55
2023-01-25T17:48:22.574Z,98.15
2023-01-25T17:51:00.854Z,101.22
2023-01-25T17:53:28.254Z,88.13
2023-01-25T17:55:55.407Z,98.57
2023-01-25T17:58:22.865Z,84.43
2023-01-25T18:00:49.432Z,88.90
2023-01-25T18:03:16.744Z,97.00
2023-01-25T18:05:45.147Z,97.15
2023-01-25T18:08:12.789Z,115.63
2023-01-25T18:10:40.545Z,107.65
2023-01-25T18:13:08.007Z,113.75
2023-01-25T18:15:34.646Z,108.68
2023-01-25T18:18:02.085Z,118.03
2023-01-25T18:20:30.091Z,112.65
2023-01-25T18:22:58.487Z,106.75
2023-01-25T18:25:34.318Z,95.90
2023-01-25T18:28:01.969Z,113.50
2023-01-25T18:30:37.216Z,120.85
2023-01-25T18:33:05.852Z,113.47
2023-01-25T18:35:32.702Z,115.15
2023-01-25T18:38:00.168Z,115.55
2023-01-25T18:40:26.820Z,119.82
2023-01-25T18:42:54.113Z,120.82
2023-01-25T18:45:20.835Z,115.70
2023-01-25T18:47:48.099Z,115.75
2023-01-25T18:50:16.164Z,114.68
2023-01-25T18:52:44.541Z,108.85
2023-01-25T18:55:12.311Z,111.40
2023-01-25T18:57:39.891Z,106.25
2023-01-25T19:00:07.366Z,111.85
2023-01-25T19:02:34.461Z,119.13
2023-01-25T19:05:01.023Z,127.82
2023-01-25T19:07:27.883Z,128.73
2023-01-25T19:09:54.521Z,130.55
2023-01-25T19:12:21.741Z,114.90
2023-01-25T19:14:48.320Z,117.63
2023-01-25T19:17:15.503Z,129.02
2023-01-25T19:19:43.949Z,125.45
2023-01-25T19:22:11.241Z,128.10
2023-01-25T19:24:37.867Z,111.22
2023-01-25T19:27:05.095Z,109.13
2023-01-25T19:29:31.640Z,117.50
2023-01-25T19:31:58.953Z,115.55
2023-01-25T19:34:25.653Z,106.88
2023-01-25T19:36:54.106Z,114.97
2023-01-25T19:39:20.671Z,117.97
2023-01-25T19:41:47.573Z,129.13
2023-01-25T19:44:14.766Z,124.38
2023-01-25T19:46:42.514Z,126.10
2023-01-25T19:49:11.659Z,107.13
2023-01-25T19:51:41.646Z,112.72
2023-01-25T19:54:12.460Z,111.70
2023-01-25T19:56:41.358Z,117.85
2023-01-25T19:59:11.386Z,129.65
2023-01-25T20:01:44.269Z,124.28
2023-01-25T20:04:16.333Z,117.95
2023-01-25T20:06:44.435Z,123.78
2023-01-25T20:09:17.227Z,127.60
2023-01-25T20:11:45.029Z,108.18
2023-01-25T20:14:13.161Z,113.07
2023-01-25T20:16:40.612Z,135.38
2023-01-25T20:19:10.435Z,124.95
2023-01-25T20:21:40.048Z,131.88
2023-01-25T20:24:07.785Z,148.18
2023-01-25T20:26:39.213Z,131.68
2023-01-25T20:29:07.272Z,130.02
2023-01-25T20:31:37.510Z,124.75
2023-01-25T20:34:16.528Z,135.95
2023-01-25T20:36:44.595Z,160.68
2023-01-25T20:39:13.850Z,133.13
2023-01-25T20:41:41.485Z,125.55
2023-01-25T20:44:09.799Z,124.43
2023-01-25T20:46:39.139Z,134.65
2023-01-25T20:49:08.718Z,144.48
2023-01-25T20:51:35.992Z,149.35
2023-01-25T20:54:03.261Z,124.28
2023-01-25T20:56:31.950Z,144.45
2023-01-25T20:58:58.761Z,133.07
2023-01-25T21:01:29.848Z,126.10
2023-01-25T21:03:57.787Z,130.82
2023-01-25T21:06:27.580Z,125.65
2023-01-25T21:08:54.382Z,123.65
2023-01-25T21:11:23.455Z,127.03
2023-01-25T21:13:50.026Z,132.87
2023-01-25T21:16:21.805Z,119.45
2023-01-25T21:18:51.520Z,129.45
2023-01-25T21:21:21.764Z,119.47
2023-01-25T21:23:50.145Z,124.25
2023-01-25T21:26:19.859Z,124.40
2023-01-25T21:28:46.752Z,118.50
